createdAt,value
2023-01-29T00:01:37.230Z,102291.38
2023-01-29T00:04:03.948Z,102281.59
2023-01-29T00:06:30.768Z,102281.16
2023-01-29T00:08:57.362Z,102275.94
2023-01-29T00:11:25.500Z,102274.69
2023-01-29T00:13:53.499Z,102266.47
2023-01-29T00:16:20.008Z,102272.59
2023-01-29T00:18:46.499Z,102281.47
2023-01-29T00:21:15.357Z,102267.47
2023-01-29T00:23:42.175Z,102282.59
2023-01-29T00:26:09.726Z,102286.72
2023-01-29T00:28:36.622Z,102281.84
2023-01-29T00:31:20.848Z,102278.59
2023-01-29T00:33:48.269Z,102276.25
2023-01-29T00:36:16.759Z,102274.88
2023-01-29T00:38:43.331Z,102271.00
2023-01-29T00:41:31.457Z,102274.03
2023-01-29T00:44:17.309Z,102279.88
2023-01-29T00:46:44.020Z,102284.75
2023-01-29T00:49:10.721Z,102274.47
2023-01-29T00:51:38.063Z,102271.78
2023-01-29T00:54:06.764Z,102273.91
2023-01-29T00:56:36.062Z,102269.38
2023-01-29T00:59:03.760Z,102271.81
2023-01-29T01:01:48.918Z,102269.34
2023-01-29T01:04:15.455Z,102267.59
2023-01-29T01:06:42.731Z,102265.16
2023-01-29T01:09:28.919Z,102260.63
2023-01-29T01:11:55.587Z,102270.44
2023-01-29T01:14:22.129Z,102260.09
2023-01-29T01:16:49.234Z,102258.28
2023-01-29T01:19:16.228Z,102255.06
2023-01-29T01:21:48.308Z,102254.88
2023-01-29T01:24:15.755Z,102252.78
2023-01-29T01:26:42.439Z,102255.03
2023-01-29T01:29:09.377Z,102253.34
2023-01-29T01:31:36.428Z,102248.19
2023-01-29T01:34:03.661Z,102249.25
2023-01-29T01:36:32.310Z,102247.84
2023-01-29T01:38:59.778Z,102261.13
2023-01-29T01:41:26.587Z,102250.75
2023-01-29T01:44:02.190Z,102244.91
2023-01-29T01:46:31.522Z,102236.00
2023-01-29T01:49:08.933Z,102233.94
2023-01-29T01:51:39.020Z,102230.00
2023-01-29T01:54:10.259Z,102226.47
2023-01-29T01:56:41.554Z,102219.91
2023-01-29T01:59:10.575Z,102229.28
2023-01-29T02:01:41.152Z,102237.09
2023-01-29T02:04:29.757Z,102226.47
2023-01-29T02:07:16.463Z,102226.47
2023-01-29T02:09:47.822Z,102218.69
2023-01-29T02:12:16.184Z,102212.28
2023-01-29T02:14:43.647Z,102208.03
2023-01-29T02:17:18.223Z,102212.69
2023-01-29T02:19:57.470Z,102217.31
2023-01-29T02:22:48.394Z,102218.28
2023-01-29T02:25:46.353Z,102201.88
2023-01-29T02:28:24.692Z,102199.72
2023-01-29T02:31:19.867Z,102188.38
2023-01-29T02:34:22.894Z,102175.22
2023-01-29T02:37:07.313Z,102175.06
2023-01-29T02:39:42.576Z,102171.22
2023-01-29T02:42:24.768Z,102171.66
2023-01-29T02:44:56.225Z,102170.72
2023-01-29T02:47:35.080Z,102162.63
2023-01-29T02:50:29.585Z,102161.66
2023-01-29T02:53:34.207Z,102150.34
2023-01-29T02:56:22.556Z,102139.16
2023-01-29T02:59:01.407Z,102135.88
2023-01-29T03:01:32.140Z,102135.91
2023-01-29T03:04:07.357Z,102143.28
2023-01-29T03:06:38.699Z,102148.97
2023-01-29T03:09:09.619Z,102148.06
2023-01-29T03:11:41.462Z,102140.19
2023-01-29T03:14:13.710Z,102137.50
2023-01-29T03:16:45.056Z,102136.34
2023-01-29T03:19:26.292Z,102135.38
2023-01-29T03:22:01.582Z,102135.88
2023-01-29T03:24:56.865Z,102127.59
2023-01-29T03:27:45.649Z,102121.38
2023-01-29T03:30:33.255Z,102120.00
2023-01-29T03:33:03.985Z,102120.75
2023-01-29T03:35:37.712Z,102118.16
2023-01-29T03:38:06.289Z,102123.50
2023-01-29T03:40:51.840Z,102128.56
2023-01-29T03:43:49.309Z,102131.47
2023-01-29T03:46:33.288Z,102135.50
2023-01-29T03:49:22.955Z,102127.13
2023-01-29T03:51:58.625Z,102125.75
2023-01-29T03:54:34.244Z,102131.50
2023-01-29T03:57:30.049Z,102132.72
2023-01-29T04:00:08.199Z,102141.28
2023-01-29T04:02:39.566Z,102134.28
2023-01-29T04:05:12.747Z,102129.00
2023-01-29T04:07:40.176Z,102137.78
2023-01-29T04:10:13.243Z,102133.91
2023-01-29T04:12:47.393Z,102141.34
2023-01-29T04:15:15.542Z,102142.88
2023-01-29T04:17:44.234Z,102134.94
2023-01-29T04:20:11.377Z,102129.84
2023-01-29T04:22:39.262Z,102137.63
2023-01-29T04:25:15.995Z,102137.44
2023-01-29T04:28:01.778Z,102129.97
2023-01-29T04:30:56.294Z,102129.19
2023-01-29T04:33:55.205Z,102134.81
2023-01-29T04:36:38.703Z,102132.47
2023-01-29T04:39:21.210Z,102122.22
2023-01-29T04:41:55.949Z,102114.25
2023-01-29T04:44:42.499Z,102103.38
2023-01-29T04:47:30.411Z,102107.91
2023-01-29T04:50:13.844Z,102105.44
2023-01-29T04:52:56.654Z,102099.44
2023-01-29T04:55:43.814Z,102094.06
2023-01-29T04:58:21.659Z,102098.69
2023-01-29T05:00:50.179Z,102097.78
2023-01-29T05:03:16.952Z,102111.69
2023-01-29T05:05:46.129Z,102092.06
2023-01-29T05:08:14.683Z,102082.25
2023-01-29T05:10:42.417Z,102089.50
2023-01-29T05:13:12.424Z,102090.50
2023-01-29T05:15:48.276Z,102083.94
2023-01-29T05:18:14.923Z,102081.00
2023-01-29T05:20:42.603Z,102075.03
2023-01-29T05:23:19.309Z,102086.56
2023-01-29T05:25:46.852Z,102095.47
2023-01-29T05:28:17.394Z,102095.41
2023-01-29T05:30:48.823Z,102092.75
2023-01-29T05:33:30.470Z,102093.94
2023-01-29T05:35:58.941Z,102082.81
2023-01-29T05:38:25.998Z,102083.81
2023-01-29T05:40:52.469Z,102078.75
2023-01-29T05:43:23.109Z,102068.56
2023-01-29T05:45:57.456Z,102056.97
2023-01-29T05:48:24.139Z,102054.16
2023-01-29T05:50:51.047Z,102045.06
2023-01-29T05:53:17.643Z,102048.06
2023-01-29T05:55:45.629Z,102056.50
2023-01-29T05:58:12.391Z,102045.47
2023-01-29T06:00:39.134Z,102036.72
2023-01-29T06:03:05.735Z,102043.81
2023-01-29T06:05:32.301Z,102042.09
2023-01-29T06:07:58.773Z,102036.09
2023-01-29T06:10:25.413Z,102031.19
2023-01-29T06:12:51.876Z,102032.53
2023-01-29T06:15:19.801Z,102033.19
2023-01-29T06:17:46.274Z,102037.00
2023-01-29T06:20:13.681Z,102030.03
2023-01-29T06:22:40.176Z,102023.50
2023-01-29T06:25:07.338Z,102029.00
2023-01-29T06:27:33.781Z,102025.16
2023-01-29T06:30:00.252Z,102023.00
2023-01-29T06:32:27.734Z,102022.72
2023-01-29T06:34:54.310Z,102019.31
2023-01-29T06:37:20.764Z,102014.13
2023-01-29T06:39:47.248Z,102015.28
2023-01-29T06:42:13.706Z,102010.00
2023-01-29T06:44:40.182Z,102013.94
2023-01-29T06:47:06.628Z,102019.97
2023-01-29T06:49:33.242Z,102024.69
2023-01-29T06:51:59.688Z,102016.97
2023-01-29T06:54:26.223Z,102021.66
2023-01-29T06:56:52.714Z,102003.19
2023-01-29T06:59:19.233Z,102004.13
2023-01-29T07:01:45.913Z,101999.16
2023-01-29T07:04:12.483Z,102005.19
2023-01-29T07:06:38.989Z,101999.66
2023-01-29T07:09:05.478Z,101986.91
2023-01-29T07:11:34.719Z,101998.69
2023-01-29T07:14:01.196Z,101985.28
2023-01-29T07:16:27.815Z,101994.22
2023-01-29T07:18:54.357Z,101988.75
2023-01-29T07:21:20.808Z,101986.41
2023-01-29T07:23:47.293Z,101991.53
2023-01-29T07:26:13.761Z,101990.94
2023-01-29T07:28:40.681Z,101993.22
2023-01-29T07:31:08.157Z,101995.13
2023-01-29T07:33:34.815Z,102003.69
2023-01-29T07:36:01.315Z,101998.53
2023-01-29T07:38:27.827Z,101991.41
2023-01-29T07:40:54.462Z,101995.72
2023-01-29T07:43:20.969Z,101993.81
2023-01-29T07:45:47.466Z,101992.59
2023-01-29T07:48:14.036Z,101988.47
2023-01-29T07:50:40.680Z,101977.69
2023-01-29T07:53:07.203Z,101971.81
2023-01-29T07:55:34.080Z,101982.34
2023-01-29T07:58:02.559Z,101977.63
2023-01-29T08:00:30.409Z,101980.22
2023-01-29T08:03:05.390Z,101982.03
2023-01-29T08:05:32.562Z,101977.88
2023-01-29T08:08:06.457Z,101982.19
2023-01-29T08:10:36.862Z,101980.31
2023-01-29T08:13:04.933Z,101972.25
2023-01-29T08:15:32.252Z,101977.00
2023-01-29T08:17:58.847Z,101963.59
2023-01-29T08:20:25.938Z,101972.75
2023-01-29T08:23:02.448Z,101966.31
2023-01-29T08:25:29.673Z,101969.41
2023-01-29T08:28:00.172Z,101973.16
2023-01-29T08:30:28.437Z,101979.91
2023-01-29T08:32:54.931Z,101965.38
2023-01-29T08:35:21.962Z,101969.19
2023-01-29T08:37:59.797Z,101973.44
2023-01-29T08:40:27.779Z,101980.84
2023-01-29T08:43:02.669Z,101978.34
2023-01-29T08:45:30.681Z,101977.34
2023-01-29T08:47:57.123Z,101979.84
2023-01-29T08:50:23.650Z,101972.59
2023-01-29T08:52:50.136Z,101973.97
2023-01-29T08:55:16.930Z,101970.06
2023-01-29T08:57:43.689Z,101967.91
2023-01-29T09:00:10.881Z,101961.38
2023-01-29T09:02:38.086Z,101959.81
2023-01-29T09:05:05.997Z,101955.78
2023-01-29T09:07:32.598Z,101955.19
2023-01-29T09:09:59.119Z,101951.97
2023-01-29T09:12:25.665Z,101951.47
2023-01-29T09:14:52.187Z,101941.78
2023-01-29T09:17:18.735Z,101932.06
2023-01-29T09:19:45.294Z,101938.88
2023-01-29T09:22:12.004Z,101932.59
2023-01-29T09:24:38.787Z,101926.72
2023-01-29T09:27:06.223Z,101926.75
2023-01-29T09:29:35.670Z,101922.53
2023-01-29T09:32:03.411Z,101923.28
2023-01-29T09:34:29.894Z,101913.59
2023-01-29T09:36:56.412Z,101911.91
2023-01-29T09:39:22.849Z,101900.38
2023-01-29T09:41:56.995Z,101911.56
2023-01-29T09:44:38.712Z,101895.66
2023-01-29T09:47:11.622Z,101893.31
2023-01-29T09:49:42.419Z,101894.94
2023-01-29T09:52:19.310Z,101886.97
2023-01-29T09:54:57.939Z,101878.22
2023-01-29T09:57:44.214Z,101880.00
2023-01-29T10:00:16.022Z,101878.66
2023-01-29T10:03:15.739Z,101875.50
2023-01-29T10:06:04.057Z,101881.56
2023-01-29T10:09:08.477Z,101887.41
2023-01-29T10:11:39.581Z,101877.38
2023-01-29T10:15:01.961Z,101876.47
2023-01-29T10:17:44.700Z,101865.16
2023-01-29T10:20:15.415Z,101869.34
2023-01-29T10:23:20.335Z,101855.69
2023-01-29T10:25:48.184Z,101860.69
2023-01-29T10:28:26.364Z,101864.47
2023-01-29T10:31:09.642Z,101846.78
2023-01-29T10:34:03.125Z,101845.88
2023-01-29T10:36:39.096Z,101844.41
2023-01-29T10:39:05.732Z,101831.41
2023-01-29T10:42:14.199Z,101828.72
2023-01-29T10:44:48.491Z,101831.41
2023-01-29T10:47:34.523Z,101826.59
2023-01-29T10:50:20.241Z,101813.44
2023-01-29T10:53:12.425Z,101814.34
2023-01-29T10:55:51.658Z,101813.22
2023-01-29T10:58:31.759Z,101804.03
2023-01-29T11:01:20.923Z,101803.00
2023-01-29T11:04:09.723Z,101794.88
2023-01-29T11:06:38.456Z,101786.16
2023-01-29T11:09:26.366Z,101787.03
2023-01-29T11:12:03.720Z,101782.22
2023-01-29T11:21:05.850Z,101772.41
2023-01-29T11:23:35.372Z,101766.53
2023-01-29T11:26:06.734Z,101771.72
2023-01-29T11:28:56.991Z,101756.72
2023-01-29T11:31:40.123Z,101747.50
2023-01-29T11:34:23.850Z,101743.97
2023-01-29T11:37:21.164Z,101745.31
2023-01-29T11:39:49.665Z,101741.31
2023-01-29T11:42:33.746Z,101736.13
2023-01-29T11:45:03.423Z,101723.72
2023-01-29T11:50:29.673Z,101716.50
2023-01-29T11:53:01.580Z,101713.78
2023-01-29T11:55:54.583Z,101706.03
2023-01-29T11:58:38.063Z,101707.69
2023-01-29T12:01:06.653Z,101707.25
2023-01-29T12:03:35.340Z,101707.25
2023-01-29T12:06:11.064Z,101698.31
2023-01-29T12:08:44.021Z,101697.06
2023-01-29T12:11:31.943Z,101691.53
2023-01-29T12:14:44.058Z,101675.31
2023-01-29T12:17:25.404Z,101670.84
2023-01-29T12:20:01.664Z,101668.13
2023-01-29T12:23:25.572Z,101667.91
2023-01-29T12:26:09.063Z,101664.69
2023-01-29T12:29:08.775Z,101668.31
2023-01-29T12:32:05.393Z,101666.06
2023-01-29T12:34:55.119Z,101650.25
2023-01-29T12:37:50.741Z,101643.97
2023-01-29T12:40:21.044Z,101637.63
2023-01-29T12:42:58.716Z,101634.13
2023-01-29T12:46:00.402Z,101625.25
2023-01-29T12:48:41.960Z,101620.44
2023-01-29T12:51:12.571Z,101621.72
2023-01-29T12:54:17.074Z,101614.13
2023-01-29T12:56:59.436Z,101602.56
2023-01-29T12:59:31.746Z,101592.88
2023-01-29T13:02:18.520Z,101595.59
2023-01-29T13:04:53.630Z,101586.81
2023-01-29T13:07:57.583Z,101592.19
2023-01-29T13:10:59.129Z,101586.22
2023-01-29T13:13:59.299Z,101587.44
2023-01-29T13:16:32.262Z,101583.69
2023-01-29T13:19:27.809Z,101577.22
2023-01-29T13:21:59.038Z,101574.25
2023-01-29T13:24:31.398Z,101574.22
2023-01-29T13:27:04.550Z,101570.03
2023-01-29T13:29:33.315Z,101565.88
2023-01-29T13:32:03.854Z,101560.88
2023-01-29T13:34:39.221Z,101559.25
2023-01-29T13:37:31.798Z,101553.34
2023-01-29T13:40:26.279Z,101551.59
2023-01-29T13:43:00.225Z,101553.47
2023-01-29T13:45:46.227Z,101539.91
2023-01-29T13:48:37.198Z,101544.97
2023-01-29T13:51:05.185Z,101540.16
2023-01-29T13:53:43.675Z,101532.19
2023-01-29T13:59:56.143Z,101532.50
2023-01-29T14:02:28.524Z,101513.97
2023-01-29T14:05:41.397Z,101508.03
2023-01-29T14:08:38.449Z,101505.75
2023-01-29T14:11:19.237Z,101500.88
2023-01-29T14:13:52.683Z,101507.16
2023-01-29T14:16:24.093Z,101497.34
2023-01-29T14:18:58.409Z,101492.88
2023-01-29T14:21:34.385Z,101477.44
2023-01-29T14:24:23.469Z,101481.94
2023-01-29T14:27:03.313Z,101490.13
2023-01-29T14:29:48.195Z,101477.72
2023-01-29T14:32:33.445Z,101480.81
2023-01-29T14:35:15.953Z,101478.16
2023-01-29T14:37:54.527Z,101475.53
2023-01-29T14:40:32.626Z,101459.41
2023-01-29T14:43:11.920Z,101463.50
2023-01-29T14:45:45.033Z,101454.03
2023-01-29T14:48:33.983Z,101456.25
2023-01-29T14:51:09.519Z,101450.84
2023-01-29T14:53:48.888Z,101439.56
2023-01-29T14:57:01.083Z,101426.69
2023-01-29T14:59:48.361Z,101442.78
2023-01-29T15:02:42.646Z,101439.59
2023-01-29T15:05:20.042Z,101434.91
2023-01-29T15:08:43.244Z,101426.22
2023-01-29T15:11:43.969Z,101429.13
2023-01-29T15:14:36.240Z,101435.16
2023-01-29T15:17:31.909Z,101429.59
2023-01-29T15:20:04.685Z,101423.28
2023-01-29T15:22:36.531Z,101411.66
2023-01-29T15:25:08.968Z,101406.22
2023-01-29T15:27:37.255Z,101401.97
2023-01-29T15:30:09.287Z,101395.41
2023-01-29T15:33:28.961Z,101391.34
2023-01-29T15:36:08.071Z,101382.19
2023-01-29T15:38:45.028Z,101372.81
2023-01-29T15:41:22.282Z,101378.47
2023-01-29T15:43:57.944Z,101364.38
2023-01-29T15:46:37.033Z,101373.22
2023-01-29T15:49:16.845Z,101371.28
2023-01-29T15:51:45.941Z,101374.34
2023-01-29T15:54:17.636Z,101378.91
2023-01-29T15:56:53.593Z,101372.53
2023-01-29T15:59:52.586Z,101377.31
2023-01-29T16:03:08.503Z,101374.06
2023-01-29T16:05:38.302Z,101359.41
2023-01-29T16:08:10.703Z,101363.06
2023-01-29T16:10:41.197Z,101368.06
2023-01-29T16:13:38.067Z,101360.59
2023-01-29T16:16:28.398Z,101359.84
2023-01-29T16:19:01.852Z,101362.84
2023-01-29T16:21:35.583Z,101351.47
2023-01-29T16:24:13.058Z,101363.75
2023-01-29T16:26:53.401Z,101371.41
2023-01-29T16:29:30.241Z,101355.00
2023-01-29T16:32:05.259Z,101355.63
2023-01-29T16:35:02.422Z,101365.06
2023-01-29T16:37:34.896Z,101335.81
2023-01-29T16:40:35.686Z,101332.59
2023-01-29T16:43:26.227Z,101335.13
2023-01-29T16:46:29.743Z,101323.53
2023-01-29T16:49:00.712Z,101328.69
2023-01-29T16:51:41.054Z,101310.72
2023-01-29T16:54:16.151Z,101306.88
2023-01-29T16:56:45.185Z,101308.19
2023-01-29T16:59:19.163Z,101293.16
2023-01-29T17:01:45.693Z,101291.50
2023-01-29T17:04:17.843Z,101283.03
2023-01-29T17:06:58.519Z,101285.81
2023-01-29T17:09:34.210Z,101287.13
2023-01-29T17:12:03.558Z,101268.94
2023-01-29T17:14:31.953Z,101270.94
2023-01-29T17:17:14.998Z,101264.84
2023-01-29T17:19:41.689Z,101276.44
2023-01-29T17:22:14.589Z,101269.50
2023-01-29T17:24:41.977Z,101268.50
2023-01-29T17:27:16.532Z,101261.50
2023-01-29T17:29:43.041Z,101258.56
2023-01-29T17:32:09.915Z,101253.53
2023-01-29T17:34:41.639Z,101250.09
2023-01-29T17:37:13.172Z,101243.78
2023-01-29T17:39:39.812Z,101227.13
2023-01-29T17:42:06.366Z,101224.91
2023-01-29T17:44:32.864Z,101210.31
2023-01-29T17:46:59.801Z,101205.25
2023-01-29T17:49:28.654Z,101206.09
2023-01-29T17:51:56.507Z,101200.97
2023-01-29T17:54:23.408Z,101192.44
2023-01-29T17:56:51.961Z,101166.38
2023-01-29T17:59:22.464Z,101180.25
2023-01-29T18:01:50.079Z,101173.19
2023-01-29T18:04:23.277Z,101181.28
2023-01-29T18:06:51.131Z,101175.66
2023-01-29T18:09:21.766Z,101163.56
2023-01-29T18:11:49.403Z,101161.13
2023-01-29T18:14:15.995Z,101162.56
2023-01-29T18:19:37.521Z,101149.31
2023-01-29T18:22:04.069Z,101144.72
2023-01-29T18:24:31.381Z,101135.69
2023-01-29T18:26:57.881Z,101125.97
2023-01-29T18:29:29.497Z,101122.97
2023-01-29T18:31:56.424Z,101128.03
2023-01-29T18:34:23.037Z,101129.22
2023-01-29T18:36:50.239Z,101109.28
2023-01-29T18:39:16.854Z,101107.00
2023-01-29T18:41:43.368Z,101104.63
2023-01-29T18:44:10.608Z,101091.09
2023-01-29T18:46:37.119Z,101089.66
2023-01-29T18:49:05.171Z,101075.59
2023-01-29T18:51:31.888Z,101085.81
2023-01-29T18:53:58.357Z,101082.28
2023-01-29T18:56:24.851Z,101087.19
2023-01-29T18:58:55.326Z,101091.06
2023-01-29T19:01:22.725Z,101076.84
2023-01-29T19:03:49.256Z,101069.13
2023-01-29T19:06:15.726Z,101063.00
2023-01-29T19:08:43.033Z,101061.84
2023-01-29T19:11:12.381Z,101050.66
2023-01-29T19:13:39.020Z,101039.00
2023-01-29T19:16:09.817Z,101034.78
2023-01-29T19:18:36.908Z,101041.56
2023-01-29T19:21:08.532Z,101031.97
2023-01-29T19:23:35.105Z,101036.56
2023-01-29T19:26:01.584Z,101025.59
2023-01-29T19:28:32.072Z,101018.69
2023-01-29T19:30:59.470Z,101028.16
2023-01-29T19:33:27.768Z,101028.88
2023-01-29T19:35:58.922Z,101026.06
2023-01-29T19:38:25.734Z,101010.94
2023-01-29T19:40:52.307Z,101012.00
2023-01-29T19:43:19.045Z,101005.41
2023-01-29T19:45:50.961Z,100997.19
2023-01-29T19:48:21.648Z,100979.88
2023-01-29T19:50:54.343Z,100986.63
2023-01-29T19:53:21.034Z,100980.94
2023-01-29T19:55:48.349Z,100984.09
2023-01-29T19:58:14.815Z,100993.84
2023-01-29T20:00:44.401Z,100976.81
2023-01-29T20:03:11.106Z,100977.94
2023-01-29T20:05:37.613Z,100971.31
2023-01-29T20:08:05.583Z,100964.13
2023-01-29T20:10:32.558Z,100970.84
2023-01-29T20:12:59.036Z,100964.63
2023-01-29T20:15:25.494Z,100955.25
2023-01-29T20:17:51.925Z,100955.44
2023-01-29T20:20:18.858Z,100954.44
2023-01-29T20:22:56.735Z,100950.03
2023-01-29T20:27:50.548Z,100932.09
2023-01-29T20:30:17.898Z,100936.78
2023-01-29T20:32:44.521Z,100929.78
2023-01-29T20:35:11.080Z,100944.13
2023-01-29T20:37:37.547Z,100929.75
2023-01-29T20:40:04.403Z,100907.84
2023-01-29T20:42:32.919Z,100915.72
2023-01-29T20:44:59.437Z,100896.88
2023-01-29T20:47:25.991Z,100896.84
2023-01-29T20:49:52.483Z,100879.97
2023-01-29T20:52:19.096Z,100880.41
2023-01-29T20:54:45.642Z,100883.59
2023-01-29T20:57:12.263Z,100888.13
2023-01-29T20:59:38.850Z,100880.94
2023-01-29T21:02:05.355Z,100878.06
2023-01-29T21:04:32.071Z,100860.38
2023-01-29T21:06:58.560Z,100866.94
2023-01-29T21:09:25.035Z,100848.38
2023-01-29T21:11:51.559Z,100861.84
2023-01-29T21:14:18.087Z,100861.38
2023-01-29T21:16:44.776Z,100852.91
2023-01-29T21:19:13.853Z,100838.84
2023-01-29T21:21:40.367Z,100830.28
2023-01-29T21:24:08.869Z,100826.09
2023-01-29T21:26:38.358Z,100821.47
2023-01-29T21:29:05.177Z,100803.75
2023-01-29T21:31:31.692Z,100821.78
2023-01-29T21:33:58.174Z,100832.81
2023-01-29T21:36:24.627Z,100807.16
2023-01-29T21:38:51.139Z,100790.78
2023-01-29T21:41:17.635Z,100799.03
2023-01-29T21:43:44.740Z,100782.69
2023-01-29T21:46:14.263Z,100794.47
2023-01-29T21:48:40.907Z,100788.47
2023-01-29T21:51:07.973Z,100776.94
2023-01-29T21:53:34.875Z,100749.84
2023-01-29T21:56:05.862Z,100759.34
2023-01-29T21:58:32.378Z,100752.53
2023-01-29T22:01:18.259Z,100748.50
2023-01-29T22:03:47.175Z,100747.50
2023-01-29T22:06:14.093Z,100738.53
2023-01-29T22:08:40.568Z,100720.28
2023-01-29T22:11:07.526Z,100705.19
2023-01-29T22:13:34.408Z,100709.69
2023-01-29T22:16:00.929Z,100718.16
2023-01-29T22:18:27.690Z,100719.53
2023-01-29T22:20:55.374Z,100731.53
2023-01-29T22:23:22.665Z,100740.41
2023-01-29T22:25:49.225Z,100730.81
2023-01-29T22:28:16.722Z,100707.56
2023-01-29T22:30:43.878Z,100707.41
2023-01-29T22:33:10.781Z,100699.22
2023-01-29T22:35:45.279Z,100671.91
2023-01-29T22:38:16.604Z,100660.41
2023-01-29T22:40:56.885Z,100640.75
2023-01-29T22:43:32.757Z,100636.47
2023-01-29T22:46:01.234Z,100620.63
2023-01-29T22:48:32.082Z,100630.13
2023-01-29T22:51:13.314Z,100616.69
2023-01-29T22:53:54.413Z,100616.66
2023-01-29T22:56:30.880Z,100598.06
2023-01-29T22:59:05.650Z,100591.28
2023-01-29T23:01:40.304Z,100602.84
2023-01-29T23:04:07.467Z,100589.84
2023-01-29T23:06:39.246Z,100594.22
2023-01-29T23:09:18.267Z,100589.00
2023-01-29T23:11:54.212Z,100576.94
2023-01-29T23:14:23.434Z,100554.88
2023-01-29T23:16:53.244Z,100560.16
2023-01-29T23:19:22.857Z,100544.13
2023-01-29T23:21:51.251Z,100551.22
2023-01-29T23:24:26.402Z,100554.38
2023-01-29T23:27:14.981Z,100548.75
2023-01-29T23:29:48.697Z,100543.69
2023-01-29T23:32:21.258Z,100541.28
2023-01-29T23:34:51.164Z,100547.44
2023-01-29T23:37:18.369Z,100532.63
2023-01-29T23:39:49.326Z,100536.97
2023-01-29T23:42:16.648Z,100523.84
2023-01-29T23:44:44.801Z,100527.78
2023-01-29T23:47:11.757Z,100514.19
2023-01-29T23:49:42.450Z,100514.31
2023-01-29T23:52:09.532Z,100514.69
2023-01-29T23:54:37.375Z,100507.53
2023-01-29T23:57:04.697Z,100510.22
2023-01-29T23:59:32.004Z,100490.66
